Time;durP1;ratioP1;P1;durP2;ratioP2;P2;SDS_P1;SDS_P2;PMS_P1;PMS_P2;Temp;Humidity;BMP_temperature;BMP_pressure;BME280_temperature;BME280_humidity;BME280_pressure;Samples;Min_cycle;Max_cycle;Signal;HPM_P1;HPM_P2
2022/01/18 00:02:10;;;;;;;22.33;3.85;;;;;;;-1.27;86.09;100438.25;8301235;28;20470;-72
2022/01/18 00:06:11;;;;;;;27.08;4.80;;;;;;;-1.27;86.28;100456.81;8301289;28;20054;-72
2022/01/18 00:10:12;;;;;;;21.42;3.83;;;;;;;-1.29;86.45;100458.03;8301069;28;20464;-72
2022/01/18 00:14:24;;;;;;;21.52;4.05;;;;;;;-1.33;86.91;100460.28;8299594;28;20053;-71
2022/01/18 00:18:27;;;;;;;19.35;4.57;;;;;;;-1.30;86.54;100454.56;8300965;28;20383;-72
2022/01/18 00:22:29;;;;;;;17.20;3.80;;;;;;;-1.30;86.49;100459.88;8300399;28;20406;-72
2022/01/18 00:26:32;;;;;;;22.05;4.50;;;;;;;-1.36;86.63;100481.84;8300700;28;20046;-72
2022/01/18 00:34:41;;;;;;;17.98;3.92;;;;;;;-1.35;87.02;100483.50;8300626;28;20449;-72
2022/01/18 00:38:47;;;;;;;22.27;4.70;;;;;;;-1.36;87.09;100497.75;8300202;28;20068;-71
2022/01/18 00:42:48;;;;;;;15.10;3.38;;;;;;;-1.36;86.92;100492.44;8300261;28;20038;-72
2022/01/18 00:46:50;;;;;;;22.77;3.92;;;;;;;-1.40;87.55;100501.81;8299378;28;20235;-72
2022/01/18 00:50:52;;;;;;;23.50;4.22;;;;;;;-1.42;87.42;100514.44;8298679;28;20057;-71
2022/01/18 00:54:54;;;;;;;17.30;3.42;;;;;;;-1.42;87.17;100509.13;8297196;28;20053;-72
2022/01/18 00:58:54;;;;;;;22.58;3.78;;;;;;;-1.46;87.32;100513.19;8299488;28;20524;-72
2022/01/18 01:02:55;;;;;;;15.73;3.45;;;;;;;-1.49;87.48;100516.25;8299119;28;20066;-72
2022/01/18 01:06:56;;;;;;;22.63;4.07;;;;;;;-1.55;87.87;100514.38;8299501;28;20046;-72
2022/01/18 01:10:57;;;;;;;24.40;3.72;;;;;;;-1.54;88.24;100516.03;8264213;28;20121;-72
2022/01/18 01:15:05;;;;;;;22.80;3.95;;;;;;;-1.41;87.59;100510.78;8298536;28;20049;-71
2022/01/18 01:19:29;;;;;;;24.48;4.68;;;;;;;-1.38;87.28;100515.69;8290236;28;20057;-71
2022/01/18 01:32:52;;;;;;;24.65;3.75;;;;;;;-1.39;87.80;100524.66;8298154;28;20074;-71
2022/01/18 01:45:10;;;;;;;27.52;4.43;;;;;;;-1.48;88.11;100515.22;8298305;28;20050;-72
2022/01/18 01:49:13;;;;;;;23.65;4.03;;;;;;;-1.59;88.12;100523.75;8279251;28;20429;-72
2022/01/18 01:53:16;;;;;;;19.60;2.90;;;;;;;-1.58;88.10;100530.66;8295935;28;20046;-71
2022/01/18 01:57:17;;;;;;;21.70;3.75;;;;;;;-1.59;88.31;100534.34;8297508;28;20061;-72
2022/01/18 02:01:18;;;;;;;19.40;3.50;;;;;;;-1.62;88.31;100524.13;8297198;28;20054;-72
2022/01/18 02:05:21;;;;;;;19.35;3.45;;;;;;;-1.66;88.82;100517.56;8297260;28;20469;-72
2022/01/18 02:09:22;;;;;;;22.40;3.10;;;;;;;-1.67;88.83;100537.13;8297517;28;20054;-72
2022/01/18 02:13:23;;;;;;;26.13;4.22;;;;;;;-1.70;88.48;100537.53;8297869;28;20132;-71
2022/01/18 02:21:48;;;;;;;17.13;3.17;;;;;;;-1.73;88.74;100537.91;8296963;28;20089;-71
2022/01/18 02:25:49;;;;;;;27.27;2.95;;;;;;;-1.74;88.72;100537.06;8296879;28;20046;-72
2022/01/18 02:29:50;;;;;;;23.08;4.20;;;;;;;-1.72;88.96;100539.53;8278305;28;20093;-71
2022/01/18 02:33:51;;;;;;;16.90;3.53;;;;;;;-1.74;89.19;100546.84;8296871;28;20096;-72
2022/01/18 02:37:52;;;;;;;25.80;3.72;;;;;;;-1.72;88.78;100555.44;8296821;28;20425;-71
2022/01/18 02:41:56;;;;;;;23.13;3.85;;;;;;;-1.72;88.96;100558.06;8296753;28;20050;-72
2022/01/18 02:45:58;;;;;;;23.13;4.03;;;;;;;-1.75;89.13;100555.81;8296164;28;20049;-71
2022/01/18 02:49:59;;;;;;;17.95;3.45;;;;;;;-1.76;89.73;100564.78;8296223;28;20103;-72
2022/01/18 02:54:02;;;;;;;19.05;3.50;;;;;;;-1.78;89.40;100545.59;8295648;28;20061;-71
2022/01/18 02:58:08;;;;;;;23.33;3.55;;;;;;;-1.82;89.73;100560.25;8295060;28;20080;-72
2022/01/18 03:06:39;;;;;;;25.92;6.05;;;;;;;-1.80;89.72;100563.53;8295761;28;20065;-71
2022/01/18 03:10:40;;;;;;;30.20;3.28;;;;;;;-1.84;90.01;100567.56;8295481;28;20088;-71
2022/01/18 03:14:41;;;;;;;27.70;4.25;;;;;;;-1.83;90.40;100595.69;8295583;28;20498;-71
2022/01/18 03:18:42;;;;;;;27.77;6.70;;;;;;;-1.88;90.58;100613.97;8295921;28;20049;-71
2022/01/18 03:22:45;;;;;;;19.60;3.60;;;;;;;-1.93;91.13;100611.06;8295543;28;20054;-71
2022/01/18 03:31:05;;;;;;;20.05;4.05;;;;;;;-1.88;91.29;100600.72;8294871;28;20054;-72
2022/01/18 03:35:08;;;;;;;20.60;4.47;;;;;;;-1.90;91.22;100605.38;8295556;28;20489;-72
2022/01/18 03:39:08;;;;;;;20.83;4.70;;;;;;;-1.89;91.21;100612.31;8259046;28;20400;-71
2022/01/18 03:43:12;;;;;;;26.77;4.75;;;;;;;-1.90;91.36;100621.28;8259284;28;20050;-72
2022/01/18 03:47:14;;;;;;;30.42;4.43;;;;;;;-1.90;91.67;100626.56;8226814;28;20054;-72
2022/01/18 03:51:15;;;;;;;30.60;4.70;;;;;;;-1.90;91.78;100627.38;8258615;28;20069;-71
2022/01/18 03:55:18;;;;;;;26.27;4.20;;;;;;;-1.99;92.11;100633.00;8257952;28;20293;-71
2022/01/18 03:59:19;;;;;;;26.00;3.78;;;;;;;-1.95;92.30;100618.38;8257618;28;20063;-71
2022/01/18 04:03:20;;;;;;;22.25;4.00;;;;;;;-1.95;92.89;100634.25;8258393;28;20519;-71
2022/01/18 04:07:21;;;;;;;16.08;3.20;;;;;;;-1.99;92.73;100627.72;8248037;28;20054;-71
2022/01/18 04:11:22;;;;;;;15.95;3.45;;;;;;;-2.04;92.91;100636.25;8296156;28;20132;-72
2022/01/18 04:15:23;;;;;;;24.48;4.13;;;;;;;-2.04;93.24;100641.53;8300533;28;20045;-72
2022/01/18 04:27:59;;;;;;;31.33;4.47;;;;;;;-2.05;93.24;100655.78;8303337;28;20049;-71
2022/01/18 04:31:59;;;;;;;33.67;4.60;;;;;;;-2.09;94.02;100669.56;8300053;28;20077;-71
2022/01/18 04:36:01;;;;;;;29.80;5.22;;;;;;;-2.09;94.00;100675.69;8300813;28;20543;-71
2022/01/18 04:40:11;;;;;;;42.53;4.97;;;;;;;-2.11;93.80;100677.69;8300368;28;20124;-71
2022/01/18 04:48:36;;;;;;;20.85;3.97;;;;;;;-2.12;94.23;100686.66;8299662;28;20069;-72
2022/01/18 04:52:37;;;;;;;27.65;4.53;;;;;;;-2.14;94.33;100702.72;8299538;28;20054;-71
2022/01/18 05:00:39;;;;;;;26.83;3.50;;;;;;;-2.10;94.66;100695.22;8299982;28;20057;-71
2022/01/18 05:04:42;;;;;;;33.28;4.43;;;;;;;-2.14;94.95;100689.50;8300024;28;20555;-71
2022/01/18 05:08:43;;;;;;;26.90;4.28;;;;;;;-2.11;95.11;100708.66;8298430;28;20063;-71
2022/01/18 05:12:47;;;;;;;26.75;4.40;;;;;;;-2.14;95.24;100700.09;8299636;28;20050;-71
2022/01/18 05:21:24;;;;;;;27.95;4.28;;;;;;;-2.19;95.78;100702.47;8197497;28;20142;-72
2022/01/18 05:25:26;;;;;;;31.73;4.82;;;;;;;-2.16;95.93;100702.09;8197148;29;20043;-72
2022/01/18 05:29:27;;;;;;;33.90;5.00;;;;;;;-2.16;96.17;100707.38;8141799;28;20154;-72
2022/01/18 05:33:28;;;;;;;31.88;6.47;;;;;;;-2.15;96.47;100703.72;8198866;28;20523;-71
2022/01/18 05:37:28;;;;;;;31.83;4.60;;;;;;;-2.11;96.58;100713.97;8198296;29;20122;-71
2022/01/18 05:41:29;;;;;;;27.48;4.95;;;;;;;-2.14;96.60;100694.78;8198095;29;20054;-71
2022/01/18 05:45:30;;;;;;;46.25;5.82;;;;;;;-2.13;96.58;100701.72;8198009;29;20150;-71
2022/01/18 05:49:31;;;;;;;40.22;4.95;;;;;;;-2.13;97.05;100717.59;8198347;29;20051;-71
2022/01/18 05:53:39;;;;;;;29.17;4.40;;;;;;;-2.14;97.09;100723.91;8197826;29;20093;-71
2022/01/18 05:57:40;;;;;;;41.17;5.75;;;;;;;-2.16;97.22;100702.09;8258618;28;20057;-71
2022/01/18 06:01:47;;;;;;;31.20;4.85;;;;;;;-2.16;97.15;100712.66;8298254;28;20068;-71
2022/01/18 06:10:08;;;;;;;25.10;5.10;;;;;;;-2.03;97.60;100727.88;8298164;28;20054;-71
2022/01/18 06:14:09;;;;;;;35.38;4.75;;;;;;;-1.93;97.01;100714.34;8296777;28;20104;-72
2022/01/18 06:18:10;;;;;;;37.00;4.38;;;;;;;-1.79;96.62;100713.44;8295589;28;20054;-71
2022/01/18 06:22:11;;;;;;;21.40;3.85;;;;;;;-1.82;96.84;100729.72;8297612;28;20081;-71
2022/01/18 06:26:16;;;;;;;26.02;3.67;;;;;;;-1.84;96.81;100732.56;8297508;28;20060;-71
2022/01/18 06:30:18;;;;;;;34.22;4.28;;;;;;;-1.76;97.12;100735.09;8297392;28;20041;-72
2022/01/18 06:34:19;;;;;;;34.78;5.03;;;;;;;-1.68;96.66;100742.09;8297471;28;20481;-71
2022/01/18 06:38:20;;;;;;;25.13;4.38;;;;;;;-1.60;96.50;100760.50;8297381;28;20070;-71
2022/01/18 06:42:21;;;;;;;29.15;4.97;;;;;;;-1.57;96.04;100754.81;8297256;28;20092;-71
2022/01/18 06:46:22;;;;;;;29.27;4.90;;;;;;;-1.55;96.05;100763.41;8295707;28;20049;-71
2022/01/18 06:50:22;;;;;;;39.40;4.80;;;;;;;-1.54;95.90;100773.00;8296916;28;20116;-71
2022/01/18 06:54:23;;;;;;;31.02;5.00;;;;;;;-1.50;96.05;100771.63;8296627;28;20482;-71
2022/01/18 06:58:24;;;;;;;31.95;5.03;;;;;;;-1.43;95.96;100780.44;8296830;28;20582;-71
2022/01/18 07:02:26;;;;;;;26.83;4.72;;;;;;;-1.41;95.62;100781.06;8296634;28;20061;-71
2022/01/18 07:06:27;;;;;;;38.88;5.38;;;;;;;-1.40;95.70;100798.63;8296652;28;20057;-71
2022/01/18 07:10:31;;;;;;;33.28;5.75;;;;;;;-1.28;95.46;100812.19;8296668;28;20430;-71
2022/01/18 07:14:31;;;;;;;30.95;5.32;;;;;;;-1.32;94.88;100806.41;8296416;28;20046;-72
2022/01/18 07:18:35;;;;;;;30.52;5.65;;;;;;;-1.22;94.83;100815.91;8296714;28;20136;-71
2022/01/18 07:22:36;;;;;;;39.13;6.20;;;;;;;-1.27;94.88;100825.22;8296257;28;20057;-71
2022/01/18 07:26:37;;;;;;;36.63;5.13;;;;;;;-1.27;95.01;100830.53;8296292;28;20053;-71
2022/01/18 07:30:38;;;;;;;33.58;6.07;;;;;;;-1.18;94.86;100843.66;8296219;28;20054;-72
2022/01/18 07:34:46;;;;;;;38.78;6.22;;;;;;;-1.15;94.73;100843.28;8296432;28;20060;-71
2022/01/18 07:38:47;;;;;;;36.92;6.72;;;;;;;-1.07;94.46;100851.13;8296896;28;20128;-71
2022/01/18 07:42:48;;;;;;;44.15;7.10;;;;;;;-1.09;94.55;100863.72;8261208;28;20498;-71
2022/01/18 07:46:48;;;;;;;38.50;7.40;;;;;;;-1.08;95.15;100849.47;8300024;28;20129;-71
2022/01/18 07:50:51;;;;;;;26.23;6.45;;;;;;;-1.03;94.91;100862.97;8301142;28;20053;-71
2022/01/18 07:54:51;;;;;;;47.05;7.22;;;;;;;-1.01;94.92;100866.28;8302051;28;20100;-72
2022/01/18 07:58:52;;;;;;;39.72;6.80;;;;;;;-0.95;94.52;100870.78;8302583;28;20042;-72
2022/01/18 08:02:53;;;;;;;41.20;6.88;;;;;;;-0.94;94.63;100872.44;8302102;28;20454;-71
2022/01/18 08:06:54;;;;;;;40.38;6.65;;;;;;;-0.91;94.44;100887.97;8301632;28;20046;-72
2022/01/18 08:10:55;;;;;;;41.35;6.85;;;;;;;-0.91;94.66;100882.69;8301653;28;20561;-71
2022/01/18 08:15:02;;;;;;;27.65;6.78;;;;;;;-0.83;94.40;100894.97;8301444;28;20061;-71
2022/01/18 08:19:03;;;;;;;34.53;6.53;;;;;;;-0.81;94.36;100899.09;8301540;28;20046;-71
2022/01/18 08:23:04;;;;;;;42.63;7.93;;;;;;;-0.76;94.07;100907.28;8301531;28;20079;-71
2022/01/18 08:27:05;;;;;;;42.67;6.65;;;;;;;-0.73;94.01;100906.91;8282417;28;20049;-71
2022/01/18 08:31:06;;;;;;;37.25;6.68;;;;;;;-0.69;93.34;100917.97;8301519;28;20421;-71
2022/01/18 08:35:08;;;;;;;38.85;8.13;;;;;;;-0.61;93.55;100918.63;8301030;28;20057;-71
2022/01/18 08:39:09;;;;;;;43.67;7.38;;;;;;;-0.58;93.34;100923.53;8298919;28;20081;-72
2022/01/18 08:43:10;;;;;;;28.83;6.78;;;;;;;-0.56;92.90;100934.81;8300845;28;20052;-72
2022/01/18 08:47:12;;;;;;;37.92;7.97;;;;;;;-0.57;93.01;100943.78;8301084;28;20581;-72
2022/01/18 08:51:14;;;;;;;49.75;8.50;;;;;;;-0.54;92.69;100943.41;8265740;28;20096;-72
2022/01/18 08:55:15;;;;;;;40.17;7.22;;;;;;;-0.53;93.22;100944.22;8299430;28;20149;-71
2022/01/18 08:59:16;;;;;;;29.98;7.60;;;;;;;-0.45;92.79;100936.94;8264854;28;20458;-72
2022/01/18 09:03:17;;;;;;;42.90;7.88;;;;;;;-0.37;92.89;100959.06;8300379;28;20509;-71
2022/01/18 09:07:20;;;;;;;31.90;8.43;;;;;;;-0.29;92.45;100961.56;8300275;28;20129;-72
2022/01/18 09:11:23;;;;;;;44.90;9.00;;;;;;;-0.29;91.97;100964.22;8281936;28;20409;-71
2022/01/18 09:15:25;;;;;;;35.20;8.13;;;;;;;-0.29;91.98;100977.47;8300149;28;20403;-71
2022/01/18 09:19:26;;;;;;;33.15;7.97;;;;;;;-0.25;92.23;100968.13;8299697;28;20057;-71
2022/01/18 09:23:28;;;;;;;39.47;8.63;;;;;;;-0.23;91.89;100976.72;8299585;28;20144;-71
2022/01/18 09:27:30;;;;;;;34.92;8.45;;;;;;;-0.21;91.86;101001.25;8265189;28;20042;-71
2022/01/18 09:31:30;;;;;;;40.50;8.30;;;;;;;-0.14;91.91;101002.09;8299853;28;20551;-71
2022/01/18 09:35:36;;;;;;;38.03;8.40;;;;;;;-0.15;91.43;101005.78;8291550;28;20096;-71
2022/01/18 09:39:36;;;;;;;49.30;9.32;;;;;;;-0.08;91.40;100996.03;8288055;28;20053;-71
2022/01/18 09:43:40;;;;;;;30.38;9.10;;;;;;;-0.03;90.83;101004.25;8297652;28;20050;-72
2022/01/18 09:47:43;;;;;;;40.28;7.95;;;;;;;0.05;90.82;101012.06;8298917;28;20053;-72
2022/01/18 09:51:45;;;;;;;51.38;11.27;;;;;;;0.11;90.02;101011.28;8299022;28;20391;-71
2022/01/18 09:55:48;;;;;;;44.92;8.85;;;;;;;0.12;90.18;101012.09;8298465;28;20077;-72
2022/01/18 09:59:50;;;;;;;32.25;8.55;;;;;;;0.19;89.94;101013.78;8298434;28;20045;-71
2022/01/18 10:03:51;;;;;;;38.38;8.85;;;;;;;0.22;89.98;101029.34;8298471;28;20115;-72
2022/01/18 10:07:56;;;;;;;45.10;10.27;;;;;;;0.23;89.63;101035.47;8297870;28;20054;-71
2022/01/18 10:12:00;;;;;;;42.38;11.43;;;;;;;0.23;88.66;101036.31;8298027;28;20141;-72
2022/01/18 10:16:04;;;;;;;44.63;9.38;;;;;;;0.28;89.00;101028.56;8298096;28;20406;-72
2022/01/18 10:20:15;;;;;;;41.78;9.93;;;;;;;0.28;88.88;101033.88;8298019;28;20049;-71
2022/01/18 10:24:20;;;;;;;36.60;8.18;;;;;;;0.36;88.69;101035.56;8297874;28;20417;-71
2022/01/18 10:28:34;;;;;;;32.65;8.05;;;;;;;0.36;88.76;101041.72;8297579;28;20108;-71
2022/01/18 10:32:40;;;;;;;35.92;7.85;;;;;;;0.39;88.61;101041.31;8279828;28;20062;-71
2022/01/18 10:36:55;;;;;;;33.85;6.72;;;;;;;0.51;87.81;101043.44;8267875;28;20042;-71
2022/01/18 10:40:57;;;;;;;36.55;6.95;;;;;;;0.55;87.93;101045.50;8297219;28;20053;-71
2022/01/18 10:45:13;;;;;;;36.13;7.80;;;;;;;0.66;87.50;101044.13;8297133;28;20501;-71
2022/01/18 10:49:40;;;;;;;106.10;36.05;;;;;;;0.95;85.79;101041.19;8297013;28;20057;-71
2022/01/18 10:53:56;;;;;;;48.95;14.38;;;;;;;1.00;85.88;101048.59;8261861;28;20050;-71
2022/01/18 10:58:09;;;;;;;44.72;11.70;;;;;;;0.87;85.57;101041.34;8296819;28;20053;-71
2022/01/18 11:02:15;;;;;;;27.63;7.30;;;;;;;0.93;84.22;101027.25;8296691;28;20095;-71
2022/01/18 11:06:17;;;;;;;29.23;8.93;;;;;;;0.88;84.68;101045.66;8296687;28;20516;-71
2022/01/18 11:10:21;;;;;;;43.97;9.82;;;;;;;0.86;84.21;101037.03;8296990;28;20042;-72
2022/01/18 11:14:23;;;;;;;43.78;11.70;;;;;;;0.80;84.88;101048.47;8296568;28;20497;-72
2022/01/18 11:18:30;;;;;;;54.45;13.45;;;;;;;0.78;85.19;101055.84;8296473;28;20065;-71
2022/01/18 11:22:31;;;;;;;45.67;11.63;;;;;;;0.82;84.63;101057.09;8325524;28;20061;-72
2022/01/18 11:26:32;;;;;;;39.42;9.05;;;;;;;0.70;85.38;101050.69;8327723;28;20081;-72
2022/01/18 11:30:36;;;;;;;22.15;7.93;;;;;;;0.70;85.81;101040.03;8296348;28;20042;-72
2022/01/18 11:35:03;;;;;;;30.42;8.57;;;;;;;0.76;86.18;101039.25;8296442;28;20053;-72
2022/01/18 11:39:06;;;;;;;40.05;9.20;;;;;;;0.78;86.02;101061.16;8195718;29;20055;-72
2022/01/18 11:43:08;;;;;;;25.15;7.30;;;;;;;0.84;85.50;101049.75;8195679;29;20055;-72
2022/01/18 11:47:09;;;;;;;32.97;7.82;;;;;;;0.99;84.25;101042.44;8179822;29;20055;-71
2022/01/18 11:51:16;;;;;;;24.83;7.40;;;;;;;1.15;84.82;101047.41;8195270;28;20070;-71
2022/01/18 11:55:39;;;;;;;30.42;7.68;;;;;;;1.38;83.95;101047.03;8148634;29;20052;-71
2022/01/18 11:59:40;;;;;;;25.83;6.88;;;;;;;1.42;82.65;101036.81;8195546;29;20074;-71
2022/01/18 12:03:48;;;;;;;26.88;7.00;;;;;;;1.60;82.44;101045.03;8195328;29;20182;-71
2022/01/18 12:07:49;;;;;;;23.02;6.43;;;;;;;1.65;81.39;101042.59;8195224;29;20055;-72
2022/01/18 12:11:50;;;;;;;20.42;4.25;;;;;;;1.65;80.28;101050.56;8195478;29;20194;-72
2022/01/18 12:15:55;;;;;;;27.77;6.90;;;;;;;1.59;80.24;101048.72;8265066;28;20129;-71
2022/01/18 12:19:56;;;;;;;27.38;5.32;;;;;;;1.59;79.31;101040.72;8295784;28;20085;-71
2022/01/18 12:24:13;;;;;;;32.90;6.55;;;;;;;1.56;79.81;101038.47;8294258;28;20138;-72
2022/01/18 12:28:35;;;;;;;31.88;8.30;;;;;;;1.58;79.40;101041.78;8294143;28;20359;-71
2022/01/18 12:32:56;;;;;;;32.33;6.75;;;;;;;1.45;79.97;101041.75;8299233;28;20097;-71
2022/01/18 12:36:57;;;;;;;38.85;10.88;;;;;;;1.45;79.46;101036.41;8301033;28;20484;-72
2022/01/18 12:40:58;;;;;;;31.55;10.40;;;;;;;1.31;80.52;101032.09;8301005;28;20054;-72
2022/01/18 12:45:01;;;;;;;24.48;7.22;;;;;;;1.42;81.43;101034.16;8299456;28;20060;-72
2022/01/18 12:49:03;;;;;;;23.38;5.57;;;;;;;1.51;80.94;101051.59;8299539;28;20052;-72
2022/01/18 12:53:06;;;;;;;30.70;6.15;;;;;;;1.77;80.26;101040.97;8299073;28;20058;-71
2022/01/18 12:57:25;;;;;;;23.73;5.70;;;;;;;1.71;79.62;101047.09;8281848;28;20042;-71
2022/01/18 13:01:28;;;;;;;29.98;6.15;;;;;;;1.52;79.98;101053.22;8300380;28;20058;-71
2022/01/18 13:05:40;;;;;;;36.20;6.85;;;;;;;1.96;80.59;101060.63;8300336;28;20533;-72
2022/01/18 13:10:08;;;;;;;28.60;7.25;;;;;;;2.54;78.13;101053.59;8265240;28;20057;-71
2022/01/18 13:14:12;;;;;;;25.30;6.78;;;;;;;2.72;75.41;101072.44;8199286;29;20047;-71
2022/01/18 13:22:58;;;;;;;30.08;5.97;;;;;;;2.41;74.96;101059.78;8151565;29;20590;-72
2022/01/18 13:27:09;;;;;;;25.98;5.43;;;;;;;2.05;75.39;101065.56;8214986;28;20059;-71
2022/01/18 13:31:21;;;;;;;26.83;5.72;;;;;;;1.60;77.26;101071.66;8199025;29;20550;-72
2022/01/18 13:35:25;;;;;;;25.67;5.15;;;;;;;1.28;78.50;101084.69;8199104;29;20058;-72
2022/01/18 13:39:30;;;;;;;25.58;5.35;;;;;;;1.16;79.20;101078.28;8198834;29;20546;-72
2022/01/18 13:43:32;;;;;;;27.02;5.72;;;;;;;1.06;80.00;101074.38;8197992;28;20055;-72
2022/01/18 13:48:00;;;;;;;40.13;6.57;;;;;;;1.24;80.32;101067.50;8151032;29;20127;-72
2022/01/18 13:52:07;;;;;;;40.67;6.65;;;;;;;1.60;79.23;101066.34;8291863;28;20054;-71
2022/01/18 13:56:19;;;;;;;26.77;5.30;;;;;;;1.67;79.29;101072.50;8298737;28;20052;-72
2022/01/18 14:00:22;;;;;;;39.33;6.43;;;;;;;1.79;78.92;101081.56;8298693;28;20100;-72
2022/01/18 14:04:24;;;;;;;37.00;6.15;;;;;;;1.77;78.66;101080.91;8298548;28;20050;-72
2022/01/18 14:08:37;;;;;;;31.92;6.13;;;;;;;1.86;78.18;101076.22;8297960;28;20107;-72
2022/01/18 14:12:37;;;;;;;54.00;17.40;;;;;;;1.79;78.19;101081.56;8298229;28;20107;-72
2022/01/18 14:16:46;;;;;;;90.20;31.77;;;;;;;2.00;77.65;101081.38;8297980;28;20049;-72
2022/01/18 14:20:47;;;;;;;33.75;7.90;;;;;;;2.06;77.05;101083.19;8329358;28;20054;-72
2022/01/18 14:25:01;;;;;;;29.33;6.70;;;;;;;2.04;76.99;101074.59;8297579;28;20076;-72
2022/01/18 14:29:03;;;;;;;28.90;7.18;;;;;;;2.04;76.82;101085.25;8296876;28;20046;-71
2022/01/18 14:33:07;;;;;;;38.40;7.65;;;;;;;1.87;76.80;101084.00;8298634;28;20041;-71
2022/01/18 14:37:12;;;;;;;29.23;6.80;;;;;;;1.58;78.16;101100.38;8297196;28;20049;-72
2022/01/18 14:41:18;;;;;;;35.40;7.22;;;;;;;1.38;78.99;101099.47;8298184;28;20141;-72
2022/01/18 14:49:25;;;;;;;29.08;7.18;;;;;;;1.01;80.50;101114.06;8297819;28;20410;-72
2022/01/18 14:53:26;;;;;;;40.63;8.60;;;;;;;0.84;80.60;101114.41;8296624;28;20141;-72
2022/01/18 14:57:28;;;;;;;38.85;8.23;;;;;;;0.70;81.10;101117.16;8291267;28;20133;-71
2022/01/18 15:01:28;;;;;;;41.83;9.43;;;;;;;0.58;82.33;101116.09;8293578;28;20045;-71
2022/01/18 15:05:30;;;;;;;41.38;9.27;;;;;;;0.42;82.63;101104.69;8292309;28;20050;-71
2022/01/18 15:09:31;;;;;;;43.72;9.05;;;;;;;0.29;83.25;101099.31;8293899;28;20112;-72
2022/01/18 15:13:32;;;;;;;38.60;10.20;;;;;;;0.15;83.98;101118.81;8293724;28;20049;-71
2022/01/18 15:17:33;;;;;;;57.50;11.70;;;;;;;0.07;84.04;101126.91;8292936;28;20060;-71
2022/01/18 15:21:34;;;;;;;100.50;30.17;;;;;;;0.00;84.47;101121.53;8294899;28;20125;-72
2022/01/18 15:25:35;;;;;;;84.25;21.92;;;;;;;-0.04;85.13;101098.22;8293969;28;20102;-71
2022/01/18 15:29:37;;;;;;;48.45;12.98;;;;;;;-0.10;84.92;101098.97;8293498;28;20050;-71
2022/01/18 15:33:37;;;;;;;40.28;9.68;;;;;;;-0.18;85.49;101117.69;8261276;28;20074;-72
2022/01/18 15:37:38;;;;;;;43.38;12.18;;;;;;;-0.27;85.71;101119.66;8295597;28;20042;-71
2022/01/18 15:41:41;;;;;;;53.88;13.48;;;;;;;-0.29;86.00;101116.38;8276909;28;20505;-71
2022/01/18 15:45:43;;;;;;;201.43;63.80;;;;;;;-0.31;86.47;101117.56;8295540;28;20050;-72
2022/01/18 15:49:44;;;;;;;104.95;37.95;;;;;;;-0.30;86.37;101113.88;8295469;28;20060;-71
2022/01/18 15:53:46;;;;;;;51.00;13.18;;;;;;;-0.29;86.31;101120.84;8295732;28;20494;-72
2022/01/18 15:57:46;;;;;;;73.53;26.15;;;;;;;-0.27;86.37;101124.16;8295369;28;20524;-72
2022/01/18 16:01:48;;;;;;;79.05;29.45;;;;;;;-0.27;86.67;101140.09;8294112;28;20049;-71
2022/01/18 16:05:52;;;;;;;94.45;31.10;;;;;;;-0.25;86.84;101132.72;8293578;28;20119;-71
2022/01/18 16:09:53;;;;;;;199.23;78.28;;;;;;;-0.19;86.68;101121.34;8298394;28;20054;-72
2022/01/18 16:13:54;;;;;;;476.23;140.40;;;;;;;-0.25;87.09;101116.81;8300450;28;20072;-71
2022/01/18 16:17:55;;;;;;;146.93;43.78;;;;;;;-0.35;87.09;101137.53;8282840;28;20041;-72
2022/01/18 16:21:56;;;;;;;248.52;59.90;;;;;;;-0.46;87.31;101115.78;8299888;28;20505;-71
2022/01/18 16:25:58;;;;;;;97.05;26.90;;;;;;;-0.56;87.09;101130.34;8266374;28;20065;-72
2022/01/18 16:29:59;;;;;;;53.25;15.70;;;;;;;-0.66;87.82;101120.03;8300100;28;20474;-72
2022/01/18 16:34:01;;;;;;;58.30;17.42;;;;;;;-0.73;87.92;101113.84;8301481;28;20054;-71
2022/01/18 16:38:03;;;;;;;44.08;12.27;;;;;;;-0.76;88.15;101119.53;8300778;28;20061;-72
2022/01/18 16:42:04;;;;;;;71.50;28.48;;;;;;;-0.78;88.35;101116.22;8301254;28;20046;-72
2022/01/18 16:46:05;;;;;;;109.00;31.38;;;;;;;-0.81;88.26;101126.41;8282571;28;20617;-72
2022/01/18 16:50:07;;;;;;;98.35;30.83;;;;;;;-0.88;88.63;101110.38;8271338;28;20046;-71
2022/01/18 16:54:09;;;;;;;60.92;17.20;;;;;;;-0.94;88.69;101116.44;8301050;28;20053;-72
2022/01/18 16:58:10;;;;;;;63.50;22.85;;;;;;;-1.03;88.84;101117.53;8248958;28;20449;-72
2022/01/18 17:02:11;;;;;;;61.25;22.60;;;;;;;-1.04;89.11;101115.88;8293215;28;20057;-72
2022/01/18 17:06:12;;;;;;;83.93;25.13;;;;;;;-1.04;89.15;101113.25;8301008;28;20042;-71
2022/01/18 17:10:13;;;;;;;71.50;23.33;;;;;;;-1.13;89.75;101117.00;8301206;28;20097;-71
2022/01/18 17:14:14;;;;;;;78.55;25.40;;;;;;;-1.20;89.45;101116.09;8301265;28;20049;-71
2022/01/18 17:18:15;;;;;;;80.18;26.17;;;;;;;-1.27;89.51;101122.09;8296699;28;20524;-72
2022/01/18 17:22:16;;;;;;;73.40;23.50;;;;;;;-1.29;89.40;101124.13;8297697;28;20050;-71
2022/01/18 17:26:17;;;;;;;65.20;21.88;;;;;;;-1.34;89.58;101126.50;8300372;28;20116;-71
2022/01/18 17:30:18;;;;;;;65.78;19.77;;;;;;;-1.37;89.77;101116.25;8281636;28;20045;-71
2022/01/18 17:34:21;;;;;;;67.93;20.10;;;;;;;-1.43;89.48;101122.28;8299840;28;20141;-72
2022/01/18 17:38:22;;;;;;;82.47;19.80;;;;;;;-1.47;89.82;101126.31;8299739;28;20204;-72
2022/01/18 17:42:23;;;;;;;68.72;19.80;;;;;;;-1.48;89.62;101129.94;8298884;28;20142;-72
2022/01/18 17:46:24;;;;;;;69.60;19.23;;;;;;;-1.50;89.84;101131.97;8299627;28;20049;-70
2022/01/18 17:50:25;;;;;;;65.45;18.40;;;;;;;-1.54;89.67;101136.00;8299746;28;20058;-72
2022/01/18 17:54:26;;;;;;;52.15;16.35;;;;;;;-1.56;89.85;101132.69;8299579;28;20064;-71
2022/01/18 17:58:27;;;;;;;57.03;16.63;;;;;;;-1.58;89.73;101145.28;8305122;28;20046;-71
2022/01/18 18:02:28;;;;;;;51.50;15.10;;;;;;;-1.61;89.99;101124.47;8280663;28;20050;-72
2022/01/18 18:06:28;;;;;;;45.83;13.60;;;;;;;-1.66;89.83;101121.53;8264601;28;20046;-71
2022/01/18 18:10:29;;;;;;;48.80;14.52;;;;;;;-1.70;90.00;101112.31;8300091;28;20046;-71
2022/01/18 18:14:32;;;;;;;47.60;13.68;;;;;;;-1.71;89.86;101118.59;8298797;28;20070;-71
2022/01/18 18:18:35;;;;;;;50.05;14.20;;;;;;;-1.72;89.74;101116.97;8298560;28;20062;-71
2022/01/18 18:22:36;;;;;;;49.00;15.20;;;;;;;-1.75;90.19;101112.03;8298385;28;20978;-71
2022/01/18 18:26:38;;;;;;;68.22;20.13;;;;;;;-1.79;89.75;101110.72;8298145;28;20108;-71
2022/01/18 18:30:39;;;;;;;71.88;22.35;;;;;;;-1.82;89.90;101117.22;8298287;28;20517;-72
2022/01/18 18:34:40;;;;;;;81.43;21.25;;;;;;;-1.83;90.13;101114.72;8299317;28;20042;-71
2022/01/18 18:38:43;;;;;;;86.13;20.88;;;;;;;-1.84;89.89;101102.50;8299241;28;20050;-71
2022/01/18 18:42:59;;;;;;;68.00;20.20;;;;;;;-1.84;90.10;101081.31;8297293;28;20058;-71
2022/01/18 18:47:00;;;;;;;63.65;18.88;;;;;;;-1.88;90.12;101080.03;8298178;28;20050;-70
2022/01/18 18:51:02;;;;;;;53.85;17.23;;;;;;;-1.83;90.71;101080.31;8279984;28;20045;-71
2022/01/18 18:55:04;;;;;;;62.25;19.42;;;;;;;-1.80;90.71;101078.09;8295705;28;20054;-71
2022/01/18 18:59:32;;;;;;;60.03;17.58;;;;;;;-1.84;90.58;101086.59;8262991;28;20048;-71
2022/01/18 19:03:34;;;;;;;66.72;18.35;;;;;;;-1.89;90.76;101107.50;8297899;28;20153;-71
2022/01/18 19:07:35;;;;;;;56.13;18.55;;;;;;;-1.92;90.72;101115.81;8297641;28;20062;-71
2022/01/18 19:11:36;;;;;;;59.53;17.85;;;;;;;-1.93;90.62;101114.16;8297302;28;20054;-71
2022/01/18 19:15:40;;;;;;;53.97;16.98;;;;;;;-1.90;90.87;101113.78;8295545;28;20042;-71
2022/01/18 19:19:42;;;;;;;57.58;15.35;;;;;;;-1.87;91.17;101108.16;8294734;28;20050;-72
2022/01/18 19:23:44;;;;;;;57.78;16.63;;;;;;;-1.81;91.08;101123.34;8291502;28;20046;-72
2022/01/18 19:27:48;;;;;;;50.63;14.40;;;;;;;-1.88;91.39;101127.69;8292775;28;20386;-71
2022/01/18 19:31:50;;;;;;;54.53;14.25;;;;;;;-1.93;91.33;101135.34;8294431;28;20480;-72
2022/01/18 19:35:52;;;;;;;56.30;14.07;;;;;;;-1.91;91.61;101117.47;8295517;28;20061;-72
2022/01/18 19:39:53;;;;;;;58.03;14.13;;;;;;;-1.87;91.59;101130.16;8295445;28;20108;-71
2022/01/18 19:43:54;;;;;;;45.65;11.73;;;;;;;-1.88;91.75;101133.00;8301842;28;20133;-71
2022/01/18 19:47:58;;;;;;;48.88;12.38;;;;;;;-1.88;91.21;101122.41;8302399;28;20064;-71